sensor_id;sensor_type;location;lat;lon;timestamp;P1;P2;P0
46302;PMS7003;32029;51.358;5.628;2023-06-26T00:01:03;31.25;28.25;20.25
46302;PMS7003;32029;51.358;5.628;2023-06-26T00:03:31;27.33;27.33;20.33
46302;PMS7003;32029;51.358;5.628;2023-06-26T00:05:59;28.00;28.00;20.67
46302;PMS7003;32029;51.358;5.628;2023-06-26T00:08:27;30.67;28.33;19.33
46302;PMS7003;32029;51.358;5.628;2023-06-26T00:10:55;29.67;29.00;21.00
46302;PMS7003;32029;51.358;5.628;2023-06-26T00:13:23;30.33;29.00;21.00
46302;PMS7003;32029;51.358;5.628;2023-06-26T00:15:51;32.67;29.00;19.00
46302;PMS7003;32029;51.358;5.628;2023-06-26T00:18:19;35.00;30.67;20.00
46302;PMS7003;32029;51.358;5.628;2023-06-26T00:20:47;37.00;31.00;21.00
46302;PMS7003;32029;51.358;5.628;2023-06-26T00:23:18;27.33;25.67;19.00
46302;PMS7003;32029;51.358;5.628;2023-06-26T00:25:46;32.33;29.00;19.00
46302;PMS7003;32029;51.358;5.628;2023-06-26T00:28:14;26.67;24.33;17.67
46302;PMS7003;32029;51.358;5.628;2023-06-26T00:30:41;22.00;20.50;17.00
46302;PMS7003;32029;51.358;5.628;2023-06-26T00:33:08;21.67;20.33;15.33
46302;PMS7003;32029;51.358;5.628;2023-06-26T00:35:36;24.00;23.33;17.00
46302;PMS7003;32029;51.358;5.628;2023-06-26T00:38:04;21.67;19.33;15.67
46302;PMS7003;32029;51.358;5.628;2023-06-26T00:40:31;18.00;18.00;15.00
46302;PMS7003;32029;51.358;5.628;2023-06-26T00:42:58;18.00;17.00;12.50
46302;PMS7003;32029;51.358;5.628;2023-06-26T00:45:25;17.67;16.67;12.00
46302;PMS7003;32029;51.358;5.628;2023-06-26T00:47:52;19.00;18.00;15.00
46302;PMS7003;32029;51.358;5.628;2023-06-26T00:50:20;16.00;16.00;13.00
46302;PMS7003;32029;51.358;5.628;2023-06-26T00:52:47;17.00;15.67;12.00
46302;PMS7003;32029;51.358;5.628;2023-06-26T00:55:13;18.50;17.00;12.00
46302;PMS7003;32029;51.358;5.628;2023-06-26T00:57:40;17.00;15.50;13.00
46302;PMS7003;32029;51.358;5.628;2023-06-26T01:00:08;15.33;14.33;10.33
46302;PMS7003;32029;51.358;5.628;2023-06-26T01:02:36;13.33;12.33;9.67
46302;PMS7003;32029;51.358;5.628;2023-06-26T01:05:05;16.00;15.00;11.00
46302;PMS7003;32029;51.358;5.628;2023-06-26T01:07:34;16.00;16.00;13.50
46302;PMS7003;32029;51.358;5.628;2023-06-26T01:10:07;17.00;17.00;13.00
46302;PMS7003;32029;51.358;5.628;2023-06-26T01:12:34;19.33;19.33;15.00
46302;PMS7003;32029;51.358;5.628;2023-06-26T01:15:02;19.00;18.00;12.50
46302;PMS7003;32029;51.358;5.628;2023-06-26T01:17:30;13.00;13.00;10.00
46302;PMS7003;32029;51.358;5.628;2023-06-26T01:19:58;13.50;12.00;10.00
46302;PMS7003;32029;51.358;5.628;2023-06-26T01:28:10;11.00;11.00;9.00
46302;PMS7003;32029;51.358;5.628;2023-06-26T01:30:41;13.33;13.33;11.00
46302;PMS7003;32029;51.358;5.628;2023-06-26T01:33:09;11.00;11.00;9.00
46302;PMS7003;32029;51.358;5.628;2023-06-26T01:35:37;14.00;13.00;9.00
46302;PMS7003;32029;51.358;5.628;2023-06-26T01:38:15;14.33;14.00;11.00
46302;PMS7003;32029;51.358;5.628;2023-06-26T01:40:43;16.00;15.67;12.33
46302;PMS7003;32029;51.358;5.628;2023-06-26T01:43:15;15.33;12.67;9.33
46302;PMS7003;32029;51.358;5.628;2023-06-26T01:45:48;12.00;11.00;9.00
46302;PMS7003;32029;51.358;5.628;2023-06-26T01:48:19;15.00;13.00;9.00
46302;PMS7003;32029;51.358;5.628;2023-06-26T01:50:51;11.00;11.00;8.67
46302;PMS7003;32029;51.358;5.628;2023-06-26T01:53:19;10.00;10.00;8.67
46302;PMS7003;32029;51.358;5.628;2023-06-26T01:55:51;16.67;14.33;11.00
46302;PMS7003;32029;51.358;5.628;2023-06-26T01:58:22;10.67;10.67;9.33
46302;PMS7003;32029;51.358;5.628;2023-06-26T02:00:51;12.67;12.67;9.67
46302;PMS7003;32029;51.358;5.628;2023-06-26T02:03:19;13.33;11.00;9.33
46302;PMS7003;32029;51.358;5.628;2023-06-26T02:05:46;11.67;11.00;8.33
46302;PMS7003;32029;51.358;5.628;2023-06-26T02:08:14;14.67;13.00;9.33
46302;PMS7003;32029;51.358;5.628;2023-06-26T02:10:41;12.00;9.00;8.00
46302;PMS7003;32029;51.358;5.628;2023-06-26T02:13:08;14.67;13.00;9.00
46302;PMS7003;32029;51.358;5.628;2023-06-26T02:15:35;10.67;10.67;8.33
46302;PMS7003;32029;51.358;5.628;2023-06-26T02:18:02;11.33;11.33;8.67
46302;PMS7003;32029;51.358;5.628;2023-06-26T02:20:28;10.00;10.00;7.00
46302;PMS7003;32029;51.358;5.628;2023-06-26T02:22:55;13.00;12.00;9.33
46302;PMS7003;32029;51.358;5.628;2023-06-26T02:25:22;14.00;12.00;9.67
46302;PMS7003;32029;51.358;5.628;2023-06-26T02:27:50;6.80;5.80;4.00
46302;PMS7003;32029;51.358;5.628;2023-06-26T02:30:17;11.00;11.00;8.33
46302;PMS7003;32029;51.358;5.628;2023-06-26T02:32:43;13.00;12.00;10.00
46302;PMS7003;32029;51.358;5.628;2023-06-26T02:35:12;12.00;10.00;6.80
46302;PMS7003;32029;51.358;5.628;2023-06-26T02:37:39;9.00;9.00;7.33
46302;PMS7003;32029;51.358;5.628;2023-06-26T02:40:06;11.00;8.67;7.00
46302;PMS7003;32029;51.358;5.628;2023-06-26T02:42:34;10.33;9.00;6.67
46302;PMS7003;32029;51.358;5.628;2023-06-26T02:45:02;7.60;7.60;5.40
46302;PMS7003;32029;51.358;5.628;2023-06-26T02:47:30;7.40;7.40;6.20
46302;PMS7003;32029;51.358;5.628;2023-06-26T02:49:58;8.80;8.60;7.40
46302;PMS7003;32029;51.358;5.628;2023-06-26T02:52:28;7.40;7.40;6.40
46302;PMS7003;32029;51.358;5.628;2023-06-26T02:54:55;13.00;12.33;9.00
46302;PMS7003;32029;51.358;5.628;2023-06-26T02:57:23;9.40;9.40;8.00
46302;PMS7003;32029;51.358;5.628;2023-06-26T02:59:50;12.00;9.67;8.00
46302;PMS7003;32029;51.358;5.628;2023-06-26T03:02:18;11.00;9.40;8.00
46302;PMS7003;32029;51.358;5.628;2023-06-26T03:04:46;8.80;8.80;6.80
46302;PMS7003;32029;51.358;5.628;2023-06-26T03:07:14;7.80;7.80;6.20
46302;PMS7003;32029;51.358;5.628;2023-06-26T03:09:42;11.20;7.40;6.40
46302;PMS7003;32029;51.358;5.628;2023-06-26T03:12:11;9.20;7.60;5.80
46302;PMS7003;32029;51.358;5.628;2023-06-26T03:14:38;7.00;6.00;4.60
46302;PMS7003;32029;51.358;5.628;2023-06-26T03:17:07;6.20;6.00;5.00
46302;PMS7003;32029;51.358;5.628;2023-06-26T03:19:35;5.40;5.00;3.80
46302;PMS7003;32029;51.358;5.628;2023-06-26T03:22:03;6.00;4.60;4.00
46302;PMS7003;32029;51.358;5.628;2023-06-26T03:24:31;4.40;4.00;4.00
46302;PMS7003;32029;51.358;5.628;2023-06-26T03:27:00;4.40;4.40;3.60
46302;PMS7003;32029;51.358;5.628;2023-06-26T03:29:27;6.60;4.40;3.40
46302;PMS7003;32029;51.358;5.628;2023-06-26T03:31:57;4.40;4.40;3.20
46302;PMS7003;32029;51.358;5.628;2023-06-26T03:34:25;3.40;3.40;3.40
46302;PMS7003;32029;51.358;5.628;2023-06-26T03:36:54;4.80;3.60;3.20
46302;PMS7003;32029;51.358;5.628;2023-06-26T03:39:22;7.20;3.20;2.60
46302;PMS7003;32029;51.358;5.628;2023-06-26T03:41:49;4.00;4.00;3.40
46302;PMS7003;32029;51.358;5.628;2023-06-26T03:44:17;6.00;3.00;3.00
46302;PMS7003;32029;51.358;5.628;2023-06-26T03:46:44;3.00;3.00;3.00
46302;PMS7003;32029;51.358;5.628;2023-06-26T03:49:12;4.80;4.20;3.80
46302;PMS7003;32029;51.358;5.628;2023-06-26T03:51:39;4.40;4.40;3.40
46302;PMS7003;32029;51.358;5.628;2023-06-26T03:54:07;5.00;3.20;2.20
46302;PMS7003;32029;51.358;5.628;2023-06-26T03:56:34;3.00;3.00;3.00
46302;PMS7003;32029;51.358;5.628;2023-06-26T03:59:02;4.00;4.00;3.00
46302;PMS7003;32029;51.358;5.628;2023-06-26T04:01:30;3.40;3.40;3.00
46302;PMS7003;32029;51.358;5.628;2023-06-26T04:03:59;4.20;4.00;3.00
46302;PMS7003;32029;51.358;5.628;2023-06-26T04:06:27;4.00;3.00;2.00
46302;PMS7003;32029;51.358;5.628;2023-06-26T04:08:55;3.20;2.20;1.20
46302;PMS7003;32029;51.358;5.628;2023-06-26T04:11:23;6.80;5.00;4.00
46302;PMS7003;32029;51.358;5.628;2023-06-26T04:13:52;4.60;3.60;3.40
46302;PMS7003;32029;51.358;5.628;2023-06-26T04:16:20;5.00;5.00;2.80
46302;PMS7003;32029;51.358;5.628;2023-06-26T04:18:52;5.20;4.20;3.60
46302;PMS7003;32029;51.358;5.628;2023-06-26T04:21:20;4.20;3.80;3.00
46302;PMS7003;32029;51.358;5.628;2023-06-26T04:23:48;6.40;4.40;3.00
46302;PMS7003;32029;51.358;5.628;2023-06-26T04:26:15;5.33;4.00;3.00
46302;PMS7003;32029;51.358;5.628;2023-06-26T04:28:42;3.40;3.20;2.60
46302;PMS7003;32029;51.358;5.628;2023-06-26T04:31:10;3.00;1.80;1.00
46302;PMS7003;32029;51.358;5.628;2023-06-26T04:33:38;3.20;3.00;2.00
46302;PMS7003;32029;51.358;5.628;2023-06-26T04:36:06;4.20;3.00;2.00
46302;PMS7003;32029;51.358;5.628;2023-06-26T04:38:34;4.40;4.40;3.00
46302;PMS7003;32029;51.358;5.628;2023-06-26T04:41:02;2.80;2.60;2.20
46302;PMS7003;32029;51.358;5.628;2023-06-26T04:43:29;5.67;4.67;3.00
46302;PMS7003;32029;51.358;5.628;2023-06-26T04:45:56;3.00;2.00;1.67
46302;PMS7003;32029;51.358;5.628;2023-06-26T04:48:23;4.80;4.80;3.00
46302;PMS7003;32029;51.358;5.628;2023-06-26T04:50:52;3.00;2.80;2.00
46302;PMS7003;32029;51.358;5.628;2023-06-26T04:53:23;4.40;3.80;3.20
46302;PMS7003;32029;51.358;5.628;2023-06-26T04:55:51;4.60;3.80;3.00
46302;PMS7003;32029;51.358;5.628;2023-06-26T04:58:19;3.00;3.00;2.67
46302;PMS7003;32029;51.358;5.628;2023-06-26T05:00:47;3.00;3.00;2.00
46302;PMS7003;32029;51.358;5.628;2023-06-26T05:03:16;4.60;4.40;4.00
46302;PMS7003;32029;51.358;5.628;2023-06-26T05:05:44;3.00;3.00;2.40
46302;PMS7003;32029;51.358;5.628;2023-06-26T05:08:16;2.60;2.60;1.40
46302;PMS7003;32029;51.358;5.628;2023-06-26T05:10:45;5.00;3.00;2.20
46302;PMS7003;32029;51.358;5.628;2023-06-26T05:13:13;4.00;3.00;2.00
46302;PMS7003;32029;51.358;5.628;2023-06-26T05:16:25;4.00;2.80;2.00
46302;PMS7003;32029;51.358;5.628;2023-06-26T05:18:58;3.00;2.40;1.20
46302;PMS7003;32029;51.358;5.628;2023-06-26T05:21:31;0.00;0.00;0.00
46302;PMS7003;32029;51.358;5.628;2023-06-26T05:24:06;6.40;3.60;2.60
46302;PMS7003;32029;51.358;5.628;2023-06-26T05:26:34;3.00;3.00;2.00
46302;PMS7003;32029;51.358;5.628;2023-06-26T05:29:02;1.40;1.00;1.00
46302;PMS7003;32029;51.358;5.628;2023-06-26T05:31:31;4.40;4.40;3.00
46302;PMS7003;32029;51.358;5.628;2023-06-26T05:34:03;2.50;2.50;1.00
46302;PMS7003;32029;51.358;5.628;2023-06-26T05:36:31;4.60;3.00;2.20
46302;PMS7003;32029;51.358;5.628;2023-06-26T05:39:01;1.00;1.00;1.00
46302;PMS7003;32029;51.358;5.628;2023-06-26T05:41:30;1.60;1.60;1.00
46302;PMS7003;32029;51.358;5.628;2023-06-26T05:43:58;3.00;3.00;2.00
46302;PMS7003;32029;51.358;5.628;2023-06-26T05:46:25;4.00;3.00;2.00
46302;PMS7003;32029;51.358;5.628;2023-06-26T05:48:53;2.60;2.00;2.00
46302;PMS7003;32029;51.358;5.628;2023-06-26T05:51:21;2.60;2.60;2.00
46302;PMS7003;32029;51.358;5.628;2023-06-26T05:53:48;3.00;1.67;1.00
46302;PMS7003;32029;51.358;5.628;2023-06-26T05:56:17;1.20;1.00;1.00
46302;PMS7003;32029;51.358;5.628;2023-06-26T05:58:46;1.60;1.00;0.00
46302;PMS7003;32029;51.358;5.628;2023-06-26T06:01:14;1.60;0.20;0.00
46302;PMS7003;32029;51.358;5.628;2023-06-26T06:03:42;1.00;1.00;0.60
46302;PMS7003;32029;51.358;5.628;2023-06-26T06:06:10;1.33;1.33;1.00
46302;PMS7003;32029;51.358;5.628;2023-06-26T06:08:38;0.60;0.60;0.00
46302;PMS7003;32029;51.358;5.628;2023-06-26T06:11:04;0.00;0.00;0.00
46302;PMS7003;32029;51.358;5.628;2023-06-26T06:13:31;2.00;0.00;0.00
46302;PMS7003;32029;51.358;5.628;2023-06-26T06:15:59;0.00;0.00;0.00
46302;PMS7003;32029;51.358;5.628;2023-06-26T06:18:27;0.00;0.00;0.00
46302;PMS7003;32029;51.358;5.628;2023-06-26T06:20:53;0.00;0.00;0.00
46302;PMS7003;32029;51.358;5.628;2023-06-26T06:23:21;0.60;0.00;0.00
46302;PMS7003;32029;51.358;5.628;2023-06-26T06:25:49;0.00;0.00;0.00
46302;PMS7003;32029;51.358;5.628;2023-06-26T06:28:17;0.00;0.00;0.00
46302;PMS7003;32029;51.358;5.628;2023-06-26T06:30:44;1.00;0.00;0.00
46302;PMS7003;32029;51.358;5.628;2023-06-26T06:33:11;0.60;0.00;0.00
46302;PMS7003;32029;51.358;5.628;2023-06-26T06:35:38;0.33;0.00;0.00
46302;PMS7003;32029;51.358;5.628;2023-06-26T06:38:06;0.80;0.00;0.00
46302;PMS7003;32029;51.358;5.628;2023-06-26T06:40:33;0.00;0.00;0.00
46302;PMS7003;32029;51.358;5.628;2023-06-26T06:43:01;0.00;0.00;0.00
46302;PMS7003;32029;51.358;5.628;2023-06-26T06:45:28;0.00;0.00;0.00
46302;PMS7003;32029;51.358;5.628;2023-06-26T06:47:56;1.20;1.20;0.00
46302;PMS7003;32029;51.358;5.628;2023-06-26T06:50:23;2.00;0.33;0.00
46302;PMS7003;32029;51.358;5.628;2023-06-26T06:52:49;0.00;0.00;0.00
46302;PMS7003;32029;51.358;5.628;2023-06-26T06:55:16;0.00;0.00;0.00
46302;PMS7003;32029;51.358;5.628;2023-06-26T06:57:44;0.60;0.60;0.00
46302;PMS7003;32029;51.358;5.628;2023-06-26T07:00:11;0.00;0.00;0.00
46302;PMS7003;32029;51.358;5.628;2023-06-26T07:02:42;0.00;0.00;0.00
46302;PMS7003;32029;51.358;5.628;2023-06-26T07:05:10;0.00;0.00;0.00
46302;PMS7003;32029;51.358;5.628;2023-06-26T07:07:37;0.00;0.00;0.00
46302;PMS7003;32029;51.358;5.628;2023-06-26T07:10:06;0.00;0.00;0.00
46302;PMS7003;32029;51.358;5.628;2023-06-26T07:12:38;0.00;0.00;0.00
46302;PMS7003;32029;51.358;5.628;2023-06-26T07:15:06;0.00;0.00;0.00
46302;PMS7003;32029;51.358;5.628;2023-06-26T07:17:34;1.00;0.00;0.00
46302;PMS7003;32029;51.358;5.628;2023-06-26T07:20:02;1.00;0.00;0.00
46302;PMS7003;32029;51.358;5.628;2023-06-26T07:22:34;0.00;0.00;0.00
46302;PMS7003;32029;51.358;5.628;2023-06-26T07:25:01;0.67;0.00;0.00
46302;PMS7003;32029;51.358;5.628;2023-06-26T07:27:28;0.00;0.00;0.00
46302;PMS7003;32029;51.358;5.628;2023-06-26T07:29:54;0.00;0.00;0.00
46302;PMS7003;32029;51.358;5.628;2023-06-26T07:32:21;0.00;0.00;0.00
46302;PMS7003;32029;51.358;5.628;2023-06-26T07:34:48;0.00;0.00;0.00
46302;PMS7003;32029;51.358;5.628;2023-06-26T07:37:14;1.00;0.00;0.00
46302;PMS7003;32029;51.358;5.628;2023-06-26T07:39:42;0.00;0.00;0.00
46302;PMS7003;32029;51.358;5.628;2023-06-26T07:42:09;0.00;0.00;0.00
46302;PMS7003;32029;51.358;5.628;2023-06-26T07:44:37;0.40;0.00;0.00
46302;PMS7003;32029;51.358;5.628;2023-06-26T07:47:03;0.00;0.00;0.00
46302;PMS7003;32029;51.358;5.628;2023-06-26T07:49:30;0.00;0.00;0.00
46302;PMS7003;32029;51.358;5.628;2023-06-26T07:51:57;0.00;0.00;0.00
46302;PMS7003;32029;51.358;5.628;2023-06-26T07:54:25;0.20;0.00;0.00
46302;PMS7003;32029;51.358;5.628;2023-06-26T07:57:01;0.00;0.00;0.00
46302;PMS7003;32029;51.358;5.628;2023-06-26T07:59:30;0.00;0.00;0.00
46302;PMS7003;32029;51.358;5.628;2023-06-26T08:01:58;0.00;0.00;0.00
46302;PMS7003;32029;51.358;5.628;2023-06-26T08:04:27;0.00;0.00;0.00
46302;PMS7003;32029;51.358;5.628;2023-06-26T08:06:56;0.00;0.00;0.00
46302;PMS7003;32029;51.358;5.628;2023-06-26T08:09:25;0.00;0.00;0.00
46302;PMS7003;32029;51.358;5.628;2023-06-26T08:11:53;0.00;0.00;0.00
46302;PMS7003;32029;51.358;5.628;2023-06-26T08:14:20;4.00;0.00;0.00
46302;PMS7003;32029;51.358;5.628;2023-06-26T08:16:49;1.20;0.00;0.00
46302;PMS7003;32029;51.358;5.628;2023-06-26T08:19:16;0.00;0.00;0.00
46302;PMS7003;32029;51.358;5.628;2023-06-26T08:21:43;0.00;0.00;0.00
46302;PMS7003;32029;51.358;5.628;2023-06-26T08:24:11;0.00;0.00;0.00
46302;PMS7003;32029;51.358;5.628;2023-06-26T08:26:39;0.00;0.00;0.00
46302;PMS7003;32029;51.358;5.628;2023-06-26T08:29:07;0.00;0.00;0.00
46302;PMS7003;32029;51.358;5.628;2023-06-26T08:31:35;0.00;0.00;0.00
46302;PMS7003;32029;51.358;5.628;2023-06-26T08:34:03;0.00;0.00;0.00
46302;PMS7003;32029;51.358;5.628;2023-06-26T08:36:32;0.00;0.00;0.00
46302;PMS7003;32029;51.358;5.628;2023-06-26T08:39:00;0.00;0.00;0.00
46302;PMS7003;32029;51.358;5.628;2023-06-26T08:41:27;0.80;0.00;0.00
46302;PMS7003;32029;51.358;5.628;2023-06-26T08:43:54;0.00;0.00;0.00
46302;PMS7003;32029;51.358;5.628;2023-06-26T08:46:22;0.00;0.00;0.00
46302;PMS7003;32029;51.358;5.628;2023-06-26T08:49:37;0.00;0.00;0.00
46302;PMS7003;32029;51.358;5.628;2023-06-26T08:51:57;0.00;0.00;0.00
46302;PMS7003;32029;51.358;5.628;2023-06-26T08:54:31;0.00;0.00;0.00
46302;PMS7003;32029;51.358;5.628;2023-06-26T08:57:02;0.00;0.00;0.00
46302;PMS7003;32029;51.358;5.628;2023-06-26T08:59:33;0.00;0.00;0.00
46302;PMS7003;32029;51.358;5.628;2023-06-26T09:01:59;0.00;0.00;0.00
46302;PMS7003;32029;51.358;5.628;2023-06-26T09:04:26;0.00;0.00;0.00
46302;PMS7003;32029;51.358;5.628;2023-06-26T09:06:54;0.00;0.00;0.00
46302;PMS7003;32029;51.358;5.628;2023-06-26T09:09:22;0.00;0.00;0.00
46302;PMS7003;32029;51.358;5.628;2023-06-26T09:11:49;0.00;0.00;0.00
46302;PMS7003;32029;51.358;5.628;2023-06-26T09:14:17;0.00;0.00;0.00
46302;PMS7003;32029;51.358;5.628;2023-06-26T09:16:45;0.00;0.00;0.00
46302;PMS7003;32029;51.358;5.628;2023-06-26T09:19:13;0.00;0.00;0.00
46302;PMS7003;32029;51.358;5.628;2023-06-26T09:21:42;0.00;0.00;0.00
46302;PMS7003;32029;51.358;5.628;2023-06-26T09:24:10;0.00;0.00;0.00
46302;PMS7003;32029;51.358;5.628;2023-06-26T09:26:39;0.00;0.00;0.00
46302;PMS7003;32029;51.358;5.628;2023-06-26T09:29:06;0.00;0.00;0.00
46302;PMS7003;32029;51.358;5.628;2023-06-26T09:31:38;0.60;0.00;0.00
46302;PMS7003;32029;51.358;5.628;2023-06-26T09:34:06;0.00;0.00;0.00
46302;PMS7003;32029;51.358;5.628;2023-06-26T09:36:34;0.00;0.00;0.00
46302;PMS7003;32029;51.358;5.628;2023-06-26T09:39:04;0.00;0.00;0.00
46302;PMS7003;32029;51.358;5.628;2023-06-26T09:41:35;0.00;0.00;0.00
46302;PMS7003;32029;51.358;5.628;2023-06-26T09:44:05;0.00;0.00;0.00
46302;PMS7003;32029;51.358;5.628;2023-06-26T09:46:33;0.00;0.00;0.00
46302;PMS7003;32029;51.358;5.628;2023-06-26T09:49:02;0.00;0.00;0.00
46302;PMS7003;32029;51.358;5.628;2023-06-26T09:51:31;0.00;0.00;0.00
46302;PMS7003;32029;51.358;5.628;2023-06-26T09:53:59;0.00;0.00;0.00
46302;PMS7003;32029;51.358;5.628;2023-06-26T09:56:28;0.00;0.00;0.00
46302;PMS7003;32029;51.358;5.628;2023-06-26T09:58:55;0.00;0.00;0.00
46302;PMS7003;32029;51.358;5.628;2023-06-26T10:01:25;0.00;0.00;0.00
46302;PMS7003;32029;51.358;5.628;2023-06-26T10:03:53;0.00;0.00;0.00
46302;PMS7003;32029;51.358;5.628;2023-06-26T10:06:22;0.00;0.00;0.00
46302;PMS7003;32029;51.358;5.628;2023-06-26T10:08:54;0.00;0.00;0.00
46302;PMS7003;32029;51.358;5.628;2023-06-26T10:11:25;0.00;0.00;0.00
46302;PMS7003;32029;51.358;5.628;2023-06-26T10:14:01;0.00;0.00;0.00
46302;PMS7003;32029;51.358;5.628;2023-06-26T10:16:30;0.00;0.00;0.00
46302;PMS7003;32029;51.358;5.628;2023-06-26T10:19:01;0.00;0.00;0.00
46302;PMS7003;32029;51.358;5.628;2023-06-26T10:21:31;0.00;0.00;0.00
46302;PMS7003;32029;51.358;5.628;2023-06-26T10:24:00;0.00;0.00;0.00
46302;PMS7003;32029;51.358;5.628;2023-06-26T10:26:29;0.00;0.00;0.00
46302;PMS7003;32029;51.358;5.628;2023-06-26T10:28:58;0.00;0.00;0.00
46302;PMS7003;32029;51.358;5.628;2023-06-26T10:31:26;0.00;0.00;0.00
46302;PMS7003;32029;51.358;5.628;2023-06-26T10:33:55;0.00;0.00;0.00
46302;PMS7003;32029;51.358;5.628;2023-06-26T10:36:29;0.00;0.00;0.00
46302;PMS7003;32029;51.358;5.628;2023-06-26T10:38:58;0.00;0.00;0.00
46302;PMS7003;32029;51.358;5.628;2023-06-26T10:41:38;0.00;0.00;0.00
46302;PMS7003;32029;51.358;5.628;2023-06-26T10:44:06;0.00;0.00;0.00
46302;PMS7003;32029;51.358;5.628;2023-06-26T10:49:21;0.00;0.00;0.00
46302;PMS7003;32029;51.358;5.628;2023-06-26T10:51:51;0.00;0.00;0.00
46302;PMS7003;32029;51.358;5.628;2023-06-26T10:54:20;0.00;0.00;0.00
46302;PMS7003;32029;51.358;5.628;2023-06-26T10:56:50;0.00;0.00;0.00
46302;PMS7003;32029;51.358;5.628;2023-06-26T10:59:23;0.00;0.00;0.00
46302;PMS7003;32029;51.358;5.628;2023-06-26T11:01:56;0.00;0.00;0.00
46302;PMS7003;32029;51.358;5.628;2023-06-26T11:07:23;0.00;0.00;0.00
46302;PMS7003;32029;51.358;5.628;2023-06-26T11:12:40;0.00;0.00;0.00
46302;PMS7003;32029;51.358;5.628;2023-06-26T11:15:16;0.00;0.00;0.00
46302;PMS7003;32029;51.358;5.628;2023-06-26T11:17:45;0.00;0.00;0.00
46302;PMS7003;32029;51.358;5.628;2023-06-26T11:20:14;0.00;0.00;0.00
46302;PMS7003;32029;51.358;5.628;2023-06-26T11:22:42;0.00;0.00;0.00
46302;PMS7003;32029;51.358;5.628;2023-06-26T11:25:10;0.00;0.00;0.00
46302;PMS7003;32029;51.358;5.628;2023-06-26T11:27:41;0.00;0.00;0.00
46302;PMS7003;32029;51.358;5.628;2023-06-26T11:30:10;0.00;0.00;0.00
46302;PMS7003;32029;51.358;5.628;2023-06-26T11:32:48;0.00;0.00;0.00
46302;PMS7003;32029;51.358;5.628;2023-06-26T11:35:22;0.00;0.00;0.00
46302;PMS7003;32029;51.358;5.628;2023-06-26T11:37:58;0.00;0.00;0.00
46302;PMS7003;32029;51.358;5.628;2023-06-26T11:40:32;0.00;0.00;0.00
46302;PMS7003;32029;51.358;5.628;2023-06-26T11:43:01;0.00;0.00;0.00
46302;PMS7003;32029;51.358;5.628;2023-06-26T11:45:31;0.00;0.00;0.00
46302;PMS7003;32029;51.358;5.628;2023-06-26T11:48:00;0.00;0.00;0.00
46302;PMS7003;32029;51.358;5.628;2023-06-26T11:50:28;0.00;0.00;0.00
46302;PMS7003;32029;51.358;5.628;2023-06-26T11:52:56;0.00;0.00;0.00
46302;PMS7003;32029;51.358;5.628;2023-06-26T11:55:25;0.40;0.00;0.00
46302;PMS7003;32029;51.358;5.628;2023-06-26T11:57:53;0.00;0.00;0.00
46302;PMS7003;32029;51.358;5.628;2023-06-26T12:00:21;0.00;0.00;0.00
46302;PMS7003;32029;51.358;5.628;2023-06-26T12:02:48;0.00;0.00;0.00
46302;PMS7003;32029;51.358;5.628;2023-06-26T12:05:16;0.00;0.00;0.00
46302;PMS7003;32029;51.358;5.628;2023-06-26T12:07:46;0.00;0.00;0.00
46302;PMS7003;32029;51.358;5.628;2023-06-26T12:10:15;0.00;0.00;0.00
46302;PMS7003;32029;51.358;5.628;2023-06-26T12:12:43;0.00;0.00;0.00
46302;PMS7003;32029;51.358;5.628;2023-06-26T12:15:15;0.00;0.00;0.00
46302;PMS7003;32029;51.358;5.628;2023-06-26T12:17:44;1.00;0.00;0.00
46302;PMS7003;32029;51.358;5.628;2023-06-26T12:20:21;0.00;0.00;0.00
46302;PMS7003;32029;51.358;5.628;2023-06-26T12:22:50;0.00;0.00;0.00
46302;PMS7003;32029;51.358;5.628;2023-06-26T12:25:21;0.00;0.00;0.00
46302;PMS7003;32029;51.358;5.628;2023-06-26T12:27:50;0.00;0.00;0.00
46302;PMS7003;32029;51.358;5.628;2023-06-26T12:30:17;0.00;0.00;0.00
46302;PMS7003;32029;51.358;5.628;2023-06-26T12:32:44;0.00;0.00;0.00
46302;PMS7003;32029;51.358;5.628;2023-06-26T12:35:13;0.00;0.00;0.00
46302;PMS7003;32029;51.358;5.628;2023-06-26T12:37:43;0.00;0.00;0.00
46302;PMS7003;32029;51.358;5.628;2023-06-26T12:40:16;0.00;0.00;0.00
46302;PMS7003;32029;51.358;5.628;2023-06-26T12:42:49;0.00;0.00;0.00
46302;PMS7003;32029;51.358;5.628;2023-06-26T12:45:16;0.00;0.00;0.00
46302;PMS7003;32029;51.358;5.628;2023-06-26T12:47:43;0.00;0.00;0.00
46302;PMS7003;32029;51.358;5.628;2023-06-26T12:50:11;0.00;0.00;0.00
46302;PMS7003;32029;51.358;5.628;2023-06-26T12:52:39;0.00;0.00;0.00
46302;PMS7003;32029;51.358;5.628;2023-06-26T12:55:06;0.00;0.00;0.00
46302;PMS7003;32029;51.358;5.628;2023-06-26T12:57:34;0.00;0.00;0.00
46302;PMS7003;32029;51.358;5.628;2023-06-26T13:00:02;0.00;0.00;0.00
46302;PMS7003;32029;51.358;5.628;2023-06-26T13:02:29;0.00;0.00;0.00
46302;PMS7003;32029;51.358;5.628;2023-06-26T13:04:55;0.00;0.00;0.00
46302;PMS7003;32029;51.358;5.628;2023-06-26T13:07:23;0.00;0.00;0.00
46302;PMS7003;32029;51.358;5.628;2023-06-26T13:09:51;0.00;0.00;0.00
46302;PMS7003;32029;51.358;5.628;2023-06-26T13:12:19;0.00;0.00;0.00
46302;PMS7003;32029;51.358;5.628;2023-06-26T13:14:46;0.00;0.00;0.00
46302;PMS7003;32029;51.358;5.628;2023-06-26T13:17:13;0.00;0.00;0.00
46302;PMS7003;32029;51.358;5.628;2023-06-26T13:19:40;0.00;0.00;0.00
46302;PMS7003;32029;51.358;5.628;2023-06-26T13:22:08;1.00;0.00;0.00
46302;PMS7003;32029;51.358;5.628;2023-06-26T13:24:35;0.00;0.00;0.00
46302;PMS7003;32029;51.358;5.628;2023-06-26T13:27:01;0.00;0.00;0.00
46302;PMS7003;32029;51.358;5.628;2023-06-26T13:29:28;0.00;0.00;0.00
46302;PMS7003;32029;51.358;5.628;2023-06-26T13:31:55;0.00;0.00;0.00
46302;PMS7003;32029;51.358;5.628;2023-06-26T13:34:24;0.00;0.00;0.00
46302;PMS7003;32029;51.358;5.628;2023-06-26T13:36:56;0.00;0.00;0.00
46302;PMS7003;32029;51.358;5.628;2023-06-26T13:39:23;0.00;0.00;0.00
46302;PMS7003;32029;51.358;5.628;2023-06-26T13:41:51;0.00;0.00;0.00
46302;PMS7003;32029;51.358;5.628;2023-06-26T13:44:17;0.00;0.00;0.00
46302;PMS7003;32029;51.358;5.628;2023-06-26T13:46:44;0.00;0.00;0.00
46302;PMS7003;32029;51.358;5.628;2023-06-26T13:49:11;0.00;0.00;0.00
46302;PMS7003;32029;51.358;5.628;2023-06-26T13:51:37;0.00;0.00;0.00
46302;PMS7003;32029;51.358;5.628;2023-06-26T13:54:04;0.00;0.00;0.00
46302;PMS7003;32029;51.358;5.628;2023-06-26T13:56:31;0.00;0.00;0.00
46302;PMS7003;32029;51.358;5.628;2023-06-26T13:58:57;0.00;0.00;0.00
46302;PMS7003;32029;51.358;5.628;2023-06-26T14:01:24;0.00;0.00;0.00
46302;PMS7003;32029;51.358;5.628;2023-06-26T14:03:51;0.00;0.00;0.00
46302;PMS7003;32029;51.358;5.628;2023-06-26T14:06:18;0.00;0.00;0.00
46302;PMS7003;32029;51.358;5.628;2023-06-26T14:08:45;0.00;0.00;0.00
46302;PMS7003;32029;51.358;5.628;2023-06-26T14:11:12;0.00;0.00;0.00
46302;PMS7003;32029;51.358;5.628;2023-06-26T14:13:39;0.00;0.00;0.00
46302;PMS7003;32029;51.358;5.628;2023-06-26T14:16:05;0.00;0.00;0.00
46302;PMS7003;32029;51.358;5.628;2023-06-26T14:18:32;0.00;0.00;0.00
46302;PMS7003;32029;51.358;5.628;2023-06-26T14:20:59;0.00;0.00;0.00
46302;PMS7003;32029;51.358;5.628;2023-06-26T14:23:27;0.00;0.00;0.00
46302;PMS7003;32029;51.358;5.628;2023-06-26T14:25:55;0.00;0.00;0.00
46302;PMS7003;32029;51.358;5.628;2023-06-26T14:28:22;0.00;0.00;0.00
46302;PMS7003;32029;51.358;5.628;2023-06-26T14:30:48;0.00;0.00;0.00
46302;PMS7003;32029;51.358;5.628;2023-06-26T14:33:15;0.00;0.00;0.00
46302;PMS7003;32029;51.358;5.628;2023-06-26T14:35:42;0.00;0.00;0.00
46302;PMS7003;32029;51.358;5.628;2023-06-26T14:38:10;0.00;0.00;0.00